sensor_id;sensor_type;location;lat;lon;timestamp;pressure;altitude;pressure_sealevel;temperature;humidity
55486;BME280;71262;-25.924;28.194;2024-02-28T00:00:54;85532.34;;;26.34;36.54
55486;BME280;71262;-25.924;28.194;2024-02-28T00:03:19;85529.99;;;26.34;36.53
55486;BME280;71262;-25.924;28.194;2024-02-28T00:05:45;85527.74;;;26.55;36.53
55486;BME280;71262;-25.924;28.194;2024-02-28T00:08:11;85522.77;;;26.33;36.54
55486;BME280;71262;-25.924;28.194;2024-02-28T00:10:37;85520.99;;;26.34;36.53
55486;BME280;71262;-25.924;28.194;2024-02-28T00:13:02;85521.63;;;26.82;36.52
55486;BME280;71262;-25.924;28.194;2024-02-28T00:15:28;85520.56;;;26.31;36.54
55486;BME280;71262;-25.924;28.194;2024-02-28T00:17:55;85520.73;;;26.31;36.55
55486;BME280;71262;-25.924;28.194;2024-02-28T00:20:19;85519.82;;;26.83;36.51
55486;BME280;71262;-25.924;28.194;2024-02-28T00:22:45;85519.18;;;26.32;36.51
55486;BME280;71262;-25.924;28.194;2024-02-28T00:25:11;85523.51;;;26.31;36.51
55486;BME280;71262;-25.924;28.194;2024-02-28T00:27:37;85522.91;;;26.30;36.52
55486;BME280;71262;-25.924;28.194;2024-02-28T00:30:03;85525.44;;;26.31;36.51
55486;BME280;71262;-25.924;28.194;2024-02-28T00:32:28;85528.15;;;26.52;36.53
55486;BME280;71262;-25.924;28.194;2024-02-28T00:34:54;85527.53;;;26.78;36.53
55486;BME280;71262;-25.924;28.194;2024-02-28T00:37:20;85530.27;;;26.51;36.52
55486;BME280;71262;-25.924;28.194;2024-02-28T00:39:46;85529.78;;;26.29;36.53
55486;BME280;71262;-25.924;28.194;2024-02-28T00:42:11;85528.92;;;26.51;36.53
55486;BME280;71262;-25.924;28.194;2024-02-28T00:44:37;85525.67;;;26.50;36.51
55486;BME280;71262;-25.924;28.194;2024-02-28T00:47:03;85526.16;;;26.27;36.51
55486;BME280;71262;-25.924;28.194;2024-02-28T00:49:28;85524.71;;;26.25;36.53
55486;BME280;71262;-25.924;28.194;2024-02-28T00:51:54;85524.03;;;26.25;36.52
55486;BME280;71262;-25.924;28.194;2024-02-28T00:54:20;85521.92;;;26.25;36.51
55486;BME280;71262;-25.924;28.194;2024-02-28T00:56:46;85520.89;;;26.73;36.53
55486;BME280;71262;-25.924;28.194;2024-02-28T00:59:11;85520.61;;;26.47;36.51
55486;BME280;71262;-25.924;28.194;2024-02-28T01:01:37;85522.48;;;26.47;36.50
55486;BME280;71262;-25.924;28.194;2024-02-28T01:04:03;85522.79;;;26.25;36.49
55486;BME280;71262;-25.924;28.194;2024-02-28T01:06:28;85521.15;;;26.24;36.47
55486;BME280;71262;-25.924;28.194;2024-02-28T01:08:54;85520.48;;;26.24;36.50
55486;BME280;71262;-25.924;28.194;2024-02-28T01:11:20;85523.17;;;26.46;36.48
55486;BME280;71262;-25.924;28.194;2024-02-28T01:13:46;85527.70;;;26.45;36.47
55486;BME280;71262;-25.924;28.194;2024-02-28T01:16:12;85530.49;;;26.22;36.48
55486;BME280;71262;-25.924;28.194;2024-02-28T01:18:37;85533.68;;;26.22;36.48
55486;BME280;71262;-25.924;28.194;2024-02-28T01:21:03;85534.42;;;26.44;36.47
55486;BME280;71262;-25.924;28.194;2024-02-28T01:23:29;85538.99;;;26.21;36.49
55486;BME280;71262;-25.924;28.194;2024-02-28T01:25:54;85538.39;;;26.20;36.48
55486;BME280;71262;-25.924;28.194;2024-02-28T01:28:20;85541.80;;;26.20;36.47
55486;BME280;71262;-25.924;28.194;2024-02-28T01:30:46;85544.16;;;26.20;36.47
55486;BME280;71262;-25.924;28.194;2024-02-28T01:33:12;85545.72;;;26.43;36.47
55486;BME280;71262;-25.924;28.194;2024-02-28T01:35:37;85545.80;;;26.42;36.45
55486;BME280;71262;-25.924;28.194;2024-02-28T01:38:03;85543.70;;;26.20;36.45
55486;BME280;71262;-25.924;28.194;2024-02-28T01:40:29;85540.17;;;26.19;36.45
55486;BME280;71262;-25.924;28.194;2024-02-28T01:42:55;85536.60;;;26.40;36.45
55486;BME280;71262;-25.924;28.194;2024-02-28T01:45:20;85537.55;;;26.18;36.44
55486;BME280;71262;-25.924;28.194;2024-02-28T01:47:46;85534.40;;;26.18;36.44
55486;BME280;71262;-25.924;28.194;2024-02-28T01:50:12;85528.59;;;26.66;36.44
55486;BME280;71262;-25.924;28.194;2024-02-28T01:52:38;85519.45;;;26.38;36.44
55486;BME280;71262;-25.924;28.194;2024-02-28T01:55:04;85515.70;;;26.38;36.42
55486;BME280;71262;-25.924;28.194;2024-02-28T01:57:30;85518.20;;;26.15;36.42
55486;BME280;71262;-25.924;28.194;2024-02-28T01:59:55;85519.59;;;26.64;36.42
55486;BME280;71262;-25.924;28.194;2024-02-28T02:02:21;85520.68;;;26.38;36.42
55486;BME280;71262;-25.924;28.194;2024-02-28T02:04:47;85525.59;;;26.15;36.41
55486;BME280;71262;-25.924;28.194;2024-02-28T02:07:12;85528.44;;;26.14;36.41
55486;BME280;71262;-25.924;28.194;2024-02-28T02:09:38;85528.95;;;26.14;36.39
55486;BME280;71262;-25.924;28.194;2024-02-28T02:12:04;85529.58;;;26.64;36.39
55486;BME280;71262;-25.924;28.194;2024-02-28T02:14:29;85529.59;;;26.13;36.39
55486;BME280;71262;-25.924;28.194;2024-02-28T02:16:55;85532.55;;;26.35;36.40
55486;BME280;71262;-25.924;28.194;2024-02-28T02:19:21;85528.98;;;26.61;36.40
55486;BME280;71262;-25.924;28.194;2024-02-28T02:21:52;85529.13;;;26.60;36.39
55486;BME280;71262;-25.924;28.194;2024-02-28T02:24:12;85528.92;;;26.11;36.39
55486;BME280;71262;-25.924;28.194;2024-02-28T02:26:38;85532.67;;;26.12;36.36
55486;BME280;71262;-25.924;28.194;2024-02-28T02:29:04;85532.35;;;26.13;36.35
55486;BME280;71262;-25.924;28.194;2024-02-28T02:31:30;85530.34;;;26.33;36.36
55486;BME280;71262;-25.924;28.194;2024-02-28T02:33:55;85535.31;;;26.59;36.38
55486;BME280;71262;-25.924;28.194;2024-02-28T02:36:21;85539.93;;;26.33;36.37
55486;BME280;71262;-25.924;28.194;2024-02-28T02:38:47;85544.07;;;26.10;36.35
55486;BME280;71262;-25.924;28.194;2024-02-28T02:41:13;85545.02;;;26.59;36.36
55486;BME280;71262;-25.924;28.194;2024-02-28T02:43:38;85545.63;;;26.10;36.35
55486;BME280;71262;-25.924;28.194;2024-02-28T02:46:04;85544.16;;;26.58;36.35
55486;BME280;71262;-25.924;28.194;2024-02-28T02:48:30;85546.68;;;26.31;36.35
55486;BME280;71262;-25.924;28.194;2024-02-28T02:50:55;85545.82;;;26.30;36.36
55486;BME280;71262;-25.924;28.194;2024-02-28T02:53:21;85547.89;;;26.30;36.35
55486;BME280;71262;-25.924;28.194;2024-02-28T02:55:47;85550.02;;;26.30;36.35
55486;BME280;71262;-25.924;28.194;2024-02-28T02:58:13;85552.09;;;26.07;36.34
55486;BME280;71262;-25.924;28.194;2024-02-28T03:00:38;85554.02;;;26.55;36.34
55486;BME280;71262;-25.924;28.194;2024-02-28T03:03:05;85553.76;;;26.28;36.34
55486;BME280;71262;-25.924;28.194;2024-02-28T03:05:30;85556.92;;;26.05;36.35
55486;BME280;71262;-25.924;28.194;2024-02-28T03:07:56;85559.01;;;26.04;36.34
55486;BME280;71262;-25.924;28.194;2024-02-28T03:10:21;85559.39;;;26.27;36.33
55486;BME280;71262;-25.924;28.194;2024-02-28T03:12:47;85560.00;;;26.04;36.33
55486;BME280;71262;-25.924;28.194;2024-02-28T03:15:13;85561.03;;;26.04;36.33
55486;BME280;71262;-25.924;28.194;2024-02-28T03:17:39;85560.40;;;26.03;36.32
55486;BME280;71262;-25.924;28.194;2024-02-28T03:20:05;85558.06;;;26.25;36.32
55486;BME280;71262;-25.924;28.194;2024-02-28T03:22:30;85556.87;;;26.03;36.31
55486;BME280;71262;-25.924;28.194;2024-02-28T03:24:56;85558.73;;;26.51;36.31
55486;BME280;71262;-25.924;28.194;2024-02-28T03:27:22;85557.01;;;26.02;36.30
55486;BME280;71262;-25.924;28.194;2024-02-28T03:29:47;85555.31;;;26.24;36.30
55486;BME280;71262;-25.924;28.194;2024-02-28T03:32:13;85553.58;;;26.24;36.29
55486;BME280;71262;-25.924;28.194;2024-02-28T03:34:39;85553.26;;;26.50;36.29
55486;BME280;71262;-25.924;28.194;2024-02-28T03:37:05;85548.09;;;26.49;36.29
55486;BME280;71262;-25.924;28.194;2024-02-28T03:39:31;85549.67;;;26.00;36.29
55486;BME280;71262;-25.924;28.194;2024-02-28T03:41:56;85549.19;;;26.21;36.29
55486;BME280;71262;-25.924;28.194;2024-02-28T03:44:22;85550.25;;;26.21;36.28
55486;BME280;71262;-25.924;28.194;2024-02-28T03:46:48;85552.67;;;25.99;36.28
55486;BME280;71262;-25.924;28.194;2024-02-28T03:49:13;85556.86;;;25.99;36.26
55486;BME280;71262;-25.924;28.194;2024-02-28T03:51:40;85567.10;;;26.48;36.26
55486;BME280;71262;-25.924;28.194;2024-02-28T03:54:05;85567.76;;;25.98;36.27
55486;BME280;71262;-25.924;28.194;2024-02-28T03:56:31;85573.51;;;25.97;36.28
55486;BME280;71262;-25.924;28.194;2024-02-28T03:58:57;85576.01;;;26.45;36.27
55486;BME280;71262;-25.924;28.194;2024-02-28T04:01:22;85577.50;;;26.19;36.25
55486;BME280;71262;-25.924;28.194;2024-02-28T04:03:48;85578.03;;;26.19;36.24
55486;BME280;71262;-25.924;28.194;2024-02-28T04:06:14;85580.98;;;26.45;36.25
55486;BME280;71262;-25.924;28.194;2024-02-28T04:08:41;85584.58;;;26.44;36.25
55486;BME280;71262;-25.924;28.194;2024-02-28T04:11:06;85584.12;;;26.44;36.24
55486;BME280;71262;-25.924;28.194;2024-02-28T04:13:31;85588.68;;;25.96;36.23
55486;BME280;71262;-25.924;28.194;2024-02-28T04:15:57;85590.12;;;25.97;36.19
55486;BME280;71262;-25.924;28.194;2024-02-28T04:18:22;85596.85;;;25.97;36.20
55486;BME280;71262;-25.924;28.194;2024-02-28T04:20:49;85598.07;;;26.44;36.21
55486;BME280;71262;-25.924;28.194;2024-02-28T04:23:14;85599.56;;;26.16;36.22
55486;BME280;71262;-25.924;28.194;2024-02-28T04:25:40;85601.60;;;25.93;36.21
55486;BME280;71262;-25.924;28.194;2024-02-28T04:28:06;85606.77;;;25.93;36.21
55486;BME280;71262;-25.924;28.194;2024-02-28T04:30:31;85611.35;;;26.41;36.21
55486;BME280;71262;-25.924;28.194;2024-02-28T04:32:57;85617.18;;;25.92;36.21
55486;BME280;71262;-25.924;28.194;2024-02-28T04:35:23;85618.88;;;25.92;36.21
55486;BME280;71262;-25.924;28.194;2024-02-28T04:37:48;85622.67;;;25.93;36.19
55486;BME280;71262;-25.924;28.194;2024-02-28T04:40:14;85628.88;;;26.41;36.19
55486;BME280;71262;-25.924;28.194;2024-02-28T04:42:41;85630.84;;;25.91;36.19
55486;BME280;71262;-25.924;28.194;2024-02-28T04:45:07;85635.27;;;26.13;36.19
55486;BME280;71262;-25.924;28.194;2024-02-28T04:47:31;85636.59;;;26.12;36.19
55486;BME280;71262;-25.924;28.194;2024-02-28T04:49:57;85637.58;;;25.89;36.18
55486;BME280;71262;-25.924;28.194;2024-02-28T04:52:23;85640.50;;;25.90;36.18
55486;BME280;71262;-25.924;28.194;2024-02-28T04:54:49;85641.78;;;25.89;36.18
55486;BME280;71262;-25.924;28.194;2024-02-28T04:57:14;85646.37;;;26.10;36.18
55486;BME280;71262;-25.924;28.194;2024-02-28T04:59:42;85649.80;;;26.37;36.17
55486;BME280;71262;-25.924;28.194;2024-02-28T05:02:06;85650.06;;;26.10;36.17
55486;BME280;71262;-25.924;28.194;2024-02-28T05:04:32;85648.80;;;26.09;36.17
55486;BME280;71262;-25.924;28.194;2024-02-28T05:06:57;85648.82;;;26.35;36.17
55486;BME280;71262;-25.924;28.194;2024-02-28T05:09:23;85646.18;;;25.86;36.15
55486;BME280;71262;-25.924;28.194;2024-02-28T05:11:49;85646.46;;;25.88;36.12
55486;BME280;71262;-25.924;28.194;2024-02-28T05:14:15;85644.48;;;26.36;36.13
55486;BME280;71262;-25.924;28.194;2024-02-28T05:16:40;85646.61;;;25.85;36.14
55486;BME280;71262;-25.924;28.194;2024-02-28T05:19:06;85648.92;;;26.08;36.13
55486;BME280;71262;-25.924;28.194;2024-02-28T05:21:38;85654.93;;;26.34;36.13
55486;BME280;71262;-25.924;28.194;2024-02-28T05:23:58;85659.73;;;26.07;36.12
55486;BME280;71262;-25.924;28.194;2024-02-28T05:26:23;85663.56;;;26.34;36.12
55486;BME280;71262;-25.924;28.194;2024-02-28T05:28:49;85661.05;;;26.34;36.12
55486;BME280;71262;-25.924;28.194;2024-02-28T05:31:21;85663.38;;;26.06;36.12
55486;BME280;71262;-25.924;28.194;2024-02-28T05:33:41;85666.83;;;26.06;36.11
55486;BME280;71262;-25.924;28.194;2024-02-28T05:36:07;85666.95;;;26.33;36.10
55486;BME280;71262;-25.924;28.194;2024-02-28T05:38:32;85665.97;;;26.33;36.08
55486;BME280;71262;-25.924;28.194;2024-02-28T05:40:58;85666.46;;;26.32;36.08
55486;BME280;71262;-25.924;28.194;2024-02-28T05:43:24;85667.58;;;26.32;36.08
55486;BME280;71262;-25.924;28.194;2024-02-28T05:45:50;85665.63;;;26.05;36.07
55486;BME280;71262;-25.924;28.194;2024-02-28T05:48:15;85664.80;;;26.31;36.07
55486;BME280;71262;-25.924;28.194;2024-02-28T05:50:41;85667.93;;;26.30;36.07
55486;BME280;71262;-25.924;28.194;2024-02-28T05:53:07;85670.26;;;26.03;36.06
55486;BME280;71262;-25.924;28.194;2024-02-28T05:55:32;85672.01;;;26.30;36.07
55486;BME280;71262;-25.924;28.194;2024-02-28T05:57:58;85671.50;;;26.29;36.07
55486;BME280;71262;-25.924;28.194;2024-02-28T06:00:24;85670.69;;;25.80;36.06
55486;BME280;71262;-25.924;28.194;2024-02-28T06:02:50;85667.67;;;26.29;36.05
55486;BME280;71262;-25.924;28.194;2024-02-28T06:05:16;85666.10;;;26.29;36.04
55486;BME280;71262;-25.924;28.194;2024-02-28T06:07:41;85668.33;;;26.29;36.02
55486;BME280;71262;-25.924;28.194;2024-02-28T06:10:12;85667.73;;;25.80;36.02
55486;BME280;71262;-25.924;28.194;2024-02-28T06:12:33;85670.21;;;26.29;36.02
55486;BME280;71262;-25.924;28.194;2024-02-28T06:14:58;85671.60;;;26.02;36.01
55486;BME280;71262;-25.924;28.194;2024-02-28T06:17:24;85672.00;;;26.01;36.01
55486;BME280;71262;-25.924;28.194;2024-02-28T06:19:50;85671.71;;;25.80;36.00
55486;BME280;71262;-25.924;28.194;2024-02-28T06:22:16;85673.92;;;26.28;36.00
55486;BME280;71262;-25.924;28.194;2024-02-28T06:24:42;85677.40;;;26.01;36.00
55486;BME280;71262;-25.924;28.194;2024-02-28T06:27:07;85677.92;;;26.28;36.00
55486;BME280;71262;-25.924;28.194;2024-02-28T06:29:36;85679.88;;;26.01;36.00
55486;BME280;71262;-25.924;28.194;2024-02-28T06:31:59;85676.49;;;26.01;36.00
55486;BME280;71262;-25.924;28.194;2024-02-28T06:34:24;85678.56;;;26.01;35.99
55486;BME280;71262;-25.924;28.194;2024-02-28T06:36:50;85675.91;;;26.00;36.00
55486;BME280;71262;-25.924;28.194;2024-02-28T06:39:16;85674.81;;;26.27;35.99
55486;BME280;71262;-25.924;28.194;2024-02-28T06:41:42;85675.16;;;26.26;35.98
55486;BME280;71262;-25.924;28.194;2024-02-28T06:44:07;85677.04;;;26.00;35.98
55486;BME280;71262;-25.924;28.194;2024-02-28T06:46:33;85678.38;;;25.99;35.97
55486;BME280;71262;-25.924;28.194;2024-02-28T06:48:59;85678.65;;;26.00;35.96
55486;BME280;71262;-25.924;28.194;2024-02-28T06:51:25;85674.10;;;26.00;35.96
55486;BME280;71262;-25.924;28.194;2024-02-28T06:53:50;85674.82;;;26.28;35.92
55486;BME280;71262;-25.924;28.194;2024-02-28T06:56:16;85672.05;;;26.01;35.90
55486;BME280;71262;-25.924;28.194;2024-02-28T06:58:42;85675.93;;;25.80;35.91
55486;BME280;71262;-25.924;28.194;2024-02-28T07:01:08;85677.19;;;26.02;35.88
55486;BME280;71262;-25.924;28.194;2024-02-28T07:03:33;85676.44;;;25.81;35.89
55486;BME280;71262;-25.924;28.194;2024-02-28T07:05:59;85680.99;;;26.30;35.88
55486;BME280;71262;-25.924;28.194;2024-02-28T07:08:25;85681.14;;;26.03;35.86
55486;BME280;71262;-25.924;28.194;2024-02-28T07:10:51;85683.34;;;25.83;35.85
55486;BME280;71262;-25.924;28.194;2024-02-28T07:13:17;85688.63;;;26.32;35.85
55486;BME280;71262;-25.924;28.194;2024-02-28T07:15:42;85686.50;;;26.05;35.85
55486;BME280;71262;-25.924;28.194;2024-02-28T07:18:08;85686.07;;;25.83;35.85
55486;BME280;71262;-25.924;28.194;2024-02-28T07:20:34;85683.85;;;25.83;35.85
55486;BME280;71262;-25.924;28.194;2024-02-28T07:23:00;85683.03;;;26.05;35.85
55486;BME280;71262;-25.924;28.194;2024-02-28T07:25:25;85684.84;;;26.05;35.84
55486;BME280;71262;-25.924;28.194;2024-02-28T07:27:51;85687.45;;;25.85;35.82
55486;BME280;71262;-25.924;28.194;2024-02-28T07:30:17;85689.93;;;25.84;35.83
55486;BME280;71262;-25.924;28.194;2024-02-28T07:32:43;85693.52;;;26.33;35.84
55486;BME280;71262;-25.924;28.194;2024-02-28T07:35:09;85693.93;;;25.84;35.83
55486;BME280;71262;-25.924;28.194;2024-02-28T07:37:34;85696.25;;;26.05;35.84
55486;BME280;71262;-25.924;28.194;2024-02-28T07:40:00;85696.23;;;25.83;35.85
55486;BME280;71262;-25.924;28.194;2024-02-28T07:42:26;85701.57;;;26.04;35.86
55486;BME280;71262;-25.924;28.194;2024-02-28T07:44:51;85703.70;;;26.32;35.85
55486;BME280;71262;-25.924;28.194;2024-02-28T07:47:17;85707.36;;;26.05;35.84
55486;BME280;71262;-25.924;28.194;2024-02-28T07:49:44;85708.56;;;25.83;35.83
55486;BME280;71262;-25.924;28.194;2024-02-28T07:52:09;85711.92;;;25.83;35.84
55486;BME280;71262;-25.924;28.194;2024-02-28T07:54:34;85718.62;;;26.33;35.83
55486;BME280;71262;-25.924;28.194;2024-02-28T07:57:00;85722.64;;;26.06;35.84
55486;BME280;71262;-25.924;28.194;2024-02-28T07:59:26;85726.24;;;26.05;35.85
55486;BME280;71262;-25.924;28.194;2024-02-28T08:01:51;85726.62;;;25.83;35.85
55486;BME280;71262;-25.924;28.194;2024-02-28T08:04:17;85728.63;;;25.82;35.85
55486;BME280;71262;-25.924;28.194;2024-02-28T08:06:43;85730.16;;;26.30;35.86
55486;BME280;71262;-25.924;28.194;2024-02-28T08:09:09;85728.93;;;25.81;35.86
55486;BME280;71262;-25.924;28.194;2024-02-28T08:11:35;85728.15;;;25.80;35.86
55486;BME280;71262;-25.924;28.194;2024-02-28T08:14:00;85718.44;;;26.02;35.86
55486;BME280;71262;-25.924;28.194;2024-02-28T08:16:26;85716.08;;;26.28;35.87
55486;BME280;71262;-25.924;28.194;2024-02-28T08:18:52;85714.75;;;25.79;35.86
55486;BME280;71262;-25.924;28.194;2024-02-28T08:21:18;85716.89;;;25.39;35.54
55486;BME280;71262;-25.924;28.194;2024-02-28T08:23:43;85715.55;;;26.31;35.25
55486;BME280;71262;-25.924;28.194;2024-02-28T08:26:09;85711.27;;;26.06;35.52
55486;BME280;71262;-25.924;28.194;2024-02-28T08:28:35;85708.37;;;26.17;35.67
55486;BME280;71262;-25.924;28.194;2024-02-28T08:31:00;85702.62;;;26.10;35.73
55486;BME280;71262;-25.924;28.194;2024-02-28T08:33:26;85701.28;;;25.86;35.76
55486;BME280;71262;-25.924;28.194;2024-02-28T08:35:52;85702.29;;;26.34;35.78
55486;BME280;71262;-25.924;28.194;2024-02-28T08:38:18;85702.22;;;25.85;35.79
55486;BME280;71262;-25.924;28.194;2024-02-28T08:40:44;85702.89;;;26.34;35.80
55486;BME280;71262;-25.924;28.194;2024-02-28T08:43:09;85703.08;;;25.86;35.80
55486;BME280;71262;-25.924;28.194;2024-02-28T08:45:36;85704.43;;;25.86;35.79
55486;BME280;71262;-25.924;28.194;2024-02-28T08:48:06;85702.11;;;26.36;35.79
55486;BME280;71262;-25.924;28.194;2024-02-28T08:50:27;85698.97;;;26.10;35.78
55486;BME280;71262;-25.924;28.194;2024-02-28T08:52:52;85700.09;;;25.87;35.79
55486;BME280;71262;-25.924;28.194;2024-02-28T08:55:18;85700.49;;;25.87;35.79
55486;BME280;71262;-25.924;28.194;2024-02-28T08:57:44;85695.84;;;26.10;35.80
55486;BME280;71262;-25.924;28.194;2024-02-28T09:00:11;85694.91;;;26.36;35.81
55486;BME280;71262;-25.924;28.194;2024-02-28T09:02:35;85693.33;;;26.37;35.81
55486;BME280;71262;-25.924;28.194;2024-02-28T09:05:01;85693.94;;;26.37;35.82
55486;BME280;71262;-25.924;28.194;2024-02-28T09:07:27;85688.88;;;26.37;35.84
55486;BME280;71262;-25.924;28.194;2024-02-28T09:09:52;85688.28;;;26.10;35.84
55486;BME280;71262;-25.924;28.194;2024-02-28T09:12:18;85688.73;;;26.10;35.84
55486;BME280;71262;-25.924;28.194;2024-02-28T09:14:44;85690.03;;;25.88;35.84
55486;BME280;71262;-25.924;28.194;2024-02-28T09:17:10;85688.12;;;26.11;35.83
55486;BME280;71262;-25.924;28.194;2024-02-28T09:19:36;85683.26;;;26.11;35.81
55486;BME280;71262;-25.924;28.194;2024-02-28T09:22:01;85682.30;;;25.88;35.81
55486;BME280;71262;-25.924;28.194;2024-02-28T09:24:27;85680.29;;;26.09;35.81
55486;BME280;71262;-25.924;28.194;2024-02-28T09:26:53;85679.33;;;26.09;35.81
55486;BME280;71262;-25.924;28.194;2024-02-28T09:29:19;85679.56;;;26.08;35.82
55486;BME280;71262;-25.924;28.194;2024-02-28T09:31:44;85682.06;;;26.35;35.82
55486;BME280;71262;-25.924;28.194;2024-02-28T09:34:10;85678.02;;;26.35;35.83
55486;BME280;71262;-25.924;28.194;2024-02-28T09:36:40;85678.90;;;25.86;35.84
55486;BME280;71262;-25.924;28.194;2024-02-28T09:39:02;85678.01;;;25.85;35.84
55486;BME280;71262;-25.924;28.194;2024-02-28T09:41:27;85677.58;;;26.35;35.84
55486;BME280;71262;-25.924;28.194;2024-02-28T09:43:53;85676.71;;;26.35;35.84
55486;BME280;71262;-25.924;28.194;2024-02-28T09:46:19;85675.80;;;26.07;35.85
55486;BME280;71262;-25.924;28.194;2024-02-28T09:48:48;85675.06;;;26.07;35.84
55486;BME280;71262;-25.924;28.194;2024-02-28T09:51:10;85673.62;;;25.85;35.84
55486;BME280;71262;-25.924;28.194;2024-02-28T09:53:36;85669.45;;;26.08;35.84
55486;BME280;71262;-25.924;28.194;2024-02-28T09:56:02;85668.46;;;25.86;35.84
55486;BME280;71262;-25.924;28.194;2024-02-28T09:58:28;85668.87;;;25.86;35.84
55486;BME280;71262;-25.924;28.194;2024-02-28T10:00:57;85667.20;;;26.36;35.84
55486;BME280;71262;-25.924;28.194;2024-02-28T10:03:19;85666.05;;;25.89;35.84
55486;BME280;71262;-25.924;28.194;2024-02-28T10:05:45;85662.87;;;25.90;35.84
55486;BME280;71262;-25.924;28.194;2024-02-28T10:08:10;85659.23;;;26.40;35.84
55486;BME280;71262;-25.924;28.194;2024-02-28T10:10:37;85657.35;;;26.15;35.81
55486;BME280;71262;-25.924;28.194;2024-02-28T10:13:02;85655.77;;;26.43;35.81
55486;BME280;71262;-25.924;28.194;2024-02-28T10:15:28;85654.04;;;26.16;35.82
55486;BME280;71262;-25.924;28.194;2024-02-28T10:17:54;85655.18;;;26.17;35.81
55486;BME280;71262;-25.924;28.194;2024-02-28T10:20:19;85655.38;;;25.96;35.81
55486;BME280;71262;-25.924;28.194;2024-02-28T10:22:45;85654.90;;;26.19;35.80
55486;BME280;71262;-25.924;28.194;2024-02-28T10:25:11;85655.56;;;26.20;35.80
55486;BME280;71262;-25.924;28.194;2024-02-28T10:27:37;85650.47;;;26.21;35.80
55486;BME280;71262;-25.924;28.194;2024-02-28T10:30:03;85644.48;;;25.99;35.80
55486;BME280;71262;-25.924;28.194;2024-02-28T10:32:28;85640.31;;;25.99;35.81
55486;BME280;71262;-25.924;28.194;2024-02-28T10:34:54;85632.89;;;26.00;35.79
55486;BME280;71262;-25.924;28.194;2024-02-28T10:37:20;85629.16;;;26.02;35.78
55486;BME280;71262;-25.924;28.194;2024-02-28T10:39:45;85628.15;;;26.25;35.78
55486;BME280;71262;-25.924;28.194;2024-02-28T10:42:12;85625.74;;;26.04;35.76
55486;BME280;71262;-25.924;28.194;2024-02-28T10:44:37;85622.62;;;26.06;35.76
55486;BME280;71262;-25.924;28.194;2024-02-28T10:47:03;85621.07;;;26.29;35.75
55486;BME280;71262;-25.924;28.194;2024-02-28T10:49:28;85617.42;;;26.07;35.75
55486;BME280;71262;-25.924;28.194;2024-02-28T10:51:56;85613.00;;;26.08;35.74
55486;BME280;71262;-25.924;28.194;2024-02-28T10:54:21;85605.17;;;26.60;35.72
55486;BME280;71262;-25.924;28.194;2024-02-28T10:56:46;85602.48;;;26.34;35.71
55486;BME280;71262;-25.924;28.194;2024-02-28T10:59:12;85597.62;;;26.12;35.70
55486;BME280;71262;-25.924;28.194;2024-02-28T11:01:39;85595.61;;;26.12;35.70
55486;BME280;71262;-25.924;28.194;2024-02-28T11:04:03;85588.59;;;26.35;35.70
55486;BME280;71262;-25.924;28.194;2024-02-28T11:06:28;85582.18;;;26.11;35.71
55486;BME280;71262;-25.924;28.194;2024-02-28T11:08:54;85579.20;;;26.34;35.71
55486;BME280;71262;-25.924;28.194;2024-02-28T11:11:20;85575.09;;;26.12;35.71
55486;BME280;71262;-25.924;28.194;2024-02-28T11:13:53;85570.95;;;26.35;35.72
55486;BME280;71262;-25.924;28.194;2024-02-28T11:16:12;85566.64;;;26.13;35.71
55486;BME280;71262;-25.924;28.194;2024-02-28T11:21:03;85557.72;;;26.19;35.64
55486;BME280;71262;-25.924;28.194;2024-02-28T11:23:35;85556.70;;;26.16;35.67
55486;BME280;71262;-25.924;28.194;2024-02-28T11:25:54;85553.67;;;26.15;35.69
55486;BME280;71262;-25.924;28.194;2024-02-28T11:28:20;85549.71;;;26.37;35.70
55486;BME280;71262;-25.924;28.194;2024-02-28T11:30:46;85542.37;;;26.14;35.70
55486;BME280;71262;-25.924;28.194;2024-02-28T11:33:12;85538.45;;;26.37;35.70
55486;BME280;71262;-25.924;28.194;2024-02-28T11:35:37;85533.13;;;26.15;35.69
55486;BME280;71262;-25.924;28.194;2024-02-28T11:38:07;85530.46;;;26.15;35.70
55486;BME280;71262;-25.924;28.194;2024-02-28T11:40:29;85527.35;;;26.13;35.71
55486;BME280;71262;-25.924;28.194;2024-02-28T11:42:56;85524.79;;;26.13;35.71
55486;BME280;71262;-25.924;28.194;2024-02-28T11:45:21;85521.17;;;26.13;35.71
55486;BME280;71262;-25.924;28.194;2024-02-28T11:47:46;85519.29;;;26.13;35.71
55486;BME280;71262;-25.924;28.194;2024-02-28T11:50:12;85516.68;;;26.13;35.72
55486;BME280;71262;-25.924;28.194;2024-02-28T11:52:38;85516.17;;;26.35;35.72
55486;BME280;71262;-25.924;28.194;2024-02-28T11:55:04;85517.91;;;26.13;35.72
55486;BME280;71262;-25.924;28.194;2024-02-28T11:57:29;85516.34;;;26.12;35.73
55486;BME280;71262;-25.924;28.194;2024-02-28T11:59:55;85515.42;;;26.13;35.72
55486;BME280;71262;-25.924;28.194;2024-02-28T12:02:23;85513.70;;;26.14;35.72
55486;BME280;71262;-25.924;28.194;2024-02-28T12:04:47;85512.66;;;26.35;35.73
55486;BME280;71262;-25.924;28.194;2024-02-28T12:07:12;85510.88;;;26.13;35.74
55486;BME280;71262;-25.924;28.194;2024-02-28T12:09:38;85507.60;;;26.13;35.71
55486;BME280;71262;-25.924;28.194;2024-02-28T12:12:06;85506.68;;;26.13;35.71
55486;BME280;71262;-25.924;28.194;2024-02-28T12:14:31;85505.67;;;26.35;35.73
55486;BME280;71262;-25.924;28.194;2024-02-28T12:16:58;85502.08;;;26.12;35.73
55486;BME280;71262;-25.924;28.194;2024-02-28T12:19:21;85497.26;;;26.12;35.73
55486;BME280;71262;-25.924;28.194;2024-02-28T12:21:47;85491.39;;;26.34;35.74
55486;BME280;71262;-25.924;28.194;2024-02-28T12:24:13;85486.10;;;26.34;35.73
55486;BME280;71262;-25.924;28.194;2024-02-28T12:26:39;85483.35;;;26.12;35.73
55486;BME280;71262;-25.924;28.194;2024-02-28T12:29:04;85478.03;;;26.12;35.72
55486;BME280;71262;-25.924;28.194;2024-02-28T12:31:30;85479.51;;;26.34;35.73
55486;BME280;71262;-25.924;28.194;2024-02-28T12:33:55;85473.68;;;26.60;35.74